createdAt,value
2018-04-17T13:12:46.682Z,14.67
2018-04-17T13:15:19.018Z,13.97
2018-04-17T13:17:48.666Z,14.50
2018-04-17T13:20:20.276Z,14.13
2018-04-17T13:22:49.697Z,13.40
2018-04-17T13:25:19.694Z,13.70
2018-04-17T13:27:49.860Z,13.17
2018-04-17T13:30:21.544Z,13.10
2018-04-17T13:32:50.934Z,13.47
2018-04-17T13:37:48.997Z,13.10
2018-04-17T13:40:27.696Z,13.40
2018-04-17T13:42:57.254Z,12.47
2018-04-17T13:45:29.353Z,13.43
2018-04-17T13:47:58.675Z,12.70
2018-04-17T13:50:27.706Z,12.27
2018-04-17T13:52:57.638Z,13.17
2018-04-17T13:55:27.551Z,13.07
2018-04-17T13:57:56.742Z,12.73
2018-04-17T14:00:25.909Z,11.93
2018-04-17T14:05:24.207Z,13.00
2018-04-17T14:07:53.750Z,12.20
2018-04-17T14:10:23.353Z,12.07
2018-04-17T14:12:52.580Z,11.87
2018-04-17T14:15:23.208Z,12.60
2018-04-17T14:17:52.568Z,12.00
2018-04-17T14:20:22.677Z,12.63
2018-04-17T14:22:51.808Z,12.13
2018-04-17T14:25:25.592Z,11.07
2018-04-17T14:27:55.871Z,10.50
2018-04-17T14:30:25.788Z,11.40
2018-04-17T14:32:54.929Z,10.93
2018-04-17T14:35:24.192Z,11.15
2018-04-17T14:37:53.569Z,10.67
2018-04-17T14:40:24.558Z,10.50
2018-04-17T14:42:54.104Z,10.13
2018-04-17T14:45:24.338Z,10.00
2018-04-17T14:48:05.209Z,10.87
2018-04-17T14:50:34.703Z,11.00
2018-04-17T14:53:04.665Z,10.03
2018-04-17T14:55:33.731Z,9.80
2018-04-17T14:58:03.299Z,10.13
2018-04-17T15:00:32.758Z,10.73
2018-04-17T15:03:02.736Z,10.10
2018-04-17T15:05:32.303Z,9.13
2018-04-17T15:08:01.873Z,10.30
2018-04-17T15:10:31.485Z,9.90
2018-04-17T15:13:00.779Z,9.37
2018-04-17T15:15:30.490Z,9.40
2018-04-17T15:18:03.305Z,9.77
2018-04-17T15:20:33.606Z,8.67
2018-04-17T15:23:02.747Z,9.93
2018-04-17T15:25:31.841Z,8.67
2018-04-17T15:28:00.973Z,8.97
2018-04-17T15:30:30.502Z,9.35
2018-04-17T15:33:08.610Z,9.23
2018-04-17T15:35:38.246Z,9.47
2018-04-17T15:40:09.644Z,9.30
2018-04-17T15:42:41.376Z,9.47
2018-04-17T15:45:11.363Z,9.63
2018-04-17T15:47:42.071Z,10.43
2018-04-17T15:50:12.643Z,9.60
2018-04-17T15:52:41.928Z,10.57
2018-04-17T15:57:41.761Z,10.63
2018-04-17T16:00:12.489Z,12.37
2018-04-17T16:02:42.621Z,10.85
2018-04-17T16:05:11.734Z,12.40
2018-04-17T16:07:42.637Z,13.10
2018-04-17T16:10:12.935Z,12.30
2018-04-17T16:12:43.259Z,12.35
2018-04-17T16:15:14.900Z,12.63
2018-04-17T16:20:15.603Z,13.43
2018-04-17T16:22:44.786Z,12.57
2018-04-17T16:25:15.197Z,12.93
2018-04-17T16:27:45.597Z,12.63
2018-04-17T16:30:17.692Z,12.50
2018-04-17T16:32:47.706Z,13.37
2018-04-17T16:35:18.605Z,13.47
2018-04-17T17:40:11.662Z,10.57
2018-04-17T17:42:41.372Z,10.10
2018-04-17T17:45:10.716Z,11.13
2018-04-17T17:47:39.853Z,10.73
2018-04-17T17:50:19.458Z,10.63
2018-04-17T17:52:48.684Z,10.40
2018-04-17T17:55:18.373Z,9.93
2018-04-17T17:57:47.652Z,9.67
2018-04-17T18:00:17.644Z,9.50
2018-04-17T18:02:48.208Z,10.63
2018-04-17T18:05:18.985Z,10.40
2018-04-17T18:07:48.463Z,9.75
2018-04-17T18:10:18.976Z,9.13
2018-04-17T18:12:48.390Z,9.65
2018-04-17T18:15:17.891Z,8.83
2018-04-17T18:17:47.241Z,9.80
2018-04-17T18:20:18.545Z,9.50
2018-04-17T18:22:48.417Z,8.63
2018-04-17T18:25:18.183Z,8.73
2018-04-17T18:27:47.820Z,8.63
2018-04-17T18:30:19.376Z,8.83
2018-04-17T18:32:48.991Z,8.47
2018-04-17T18:35:20.309Z,9.20
2018-04-17T18:37:49.883Z,8.93
2018-04-17T18:40:20.340Z,8.85
2018-04-17T18:42:51.532Z,8.90
2018-04-17T18:45:21.531Z,8.37
2018-04-17T18:47:52.331Z,8.30
2018-04-17T18:50:23.013Z,8.57
2018-04-17T18:52:53.293Z,8.20
2018-04-17T19:39:16.295Z,7.67
2018-04-17T19:41:46.360Z,8.77
2018-04-17T19:44:17.816Z,7.93
2018-04-17T19:46:47.638Z,8.67
2018-04-17T19:49:16.987Z,7.80
2018-04-17T19:51:46.308Z,7.87
2018-04-17T19:54:15.849Z,8.10
2018-04-17T19:56:45.445Z,7.67
2018-04-17T19:59:15.687Z,7.70
2018-04-17T20:01:45.606Z,8.13
2018-04-17T20:04:15.273Z,7.73
2018-04-17T20:06:45.681Z,7.53
2018-04-17T20:09:16.241Z,7.60
2018-04-17T20:11:45.586Z,7.23
2018-04-17T20:14:16.464Z,7.27
2018-04-17T20:16:45.716Z,7.33
2018-04-17T20:19:15.542Z,7.43
2018-04-17T20:21:44.737Z,7.40
2018-04-17T20:24:14.873Z,7.47
2018-04-17T20:26:45.240Z,7.45
2018-04-17T20:29:15.731Z,7.23
2018-04-17T20:31:45.325Z,6.63
2018-04-17T20:34:15.353Z,7.40
2018-04-17T20:36:45.580Z,7.20
2018-04-17T20:39:16.343Z,7.00
2018-04-17T20:41:46.290Z,7.90
2018-04-17T20:44:15.949Z,7.10
2018-04-17T20:46:46.542Z,7.45
2018-04-17T20:49:16.395Z,7.13
2018-04-17T20:51:46.546Z,6.97
2018-04-17T20:54:16.342Z,5.90
2018-04-17T20:56:45.938Z,6.50
2018-04-17T20:59:17.294Z,7.00
2018-04-17T21:01:50.054Z,6.33
2018-04-17T21:04:20.486Z,6.63
2018-04-17T21:06:50.404Z,6.60
2018-04-17T21:09:28.567Z,6.23
2018-04-17T21:12:01.784Z,6.87
2018-04-17T21:14:37.145Z,5.77
2018-04-17T21:17:10.068Z,6.20
2018-04-17T21:19:39.881Z,6.20
2018-04-17T21:22:13.506Z,5.70
2018-04-17T21:24:42.947Z,5.83
2018-04-17T21:34:47.526Z,5.97
2018-04-17T21:37:18.755Z,5.60
2018-04-17T21:39:48.733Z,5.80
2018-04-17T21:42:18.467Z,5.30
2018-04-17T21:44:47.834Z,5.80
2018-04-17T21:47:17.907Z,5.53
2018-04-17T21:52:19.635Z,5.50
2018-04-17T21:54:49.914Z,5.07
2018-04-17T21:59:48.438Z,5.40
2018-04-17T22:02:19.776Z,5.03
2018-04-17T22:04:48.888Z,5.40
2018-04-17T22:07:19.667Z,4.77
2018-04-17T22:09:48.851Z,5.20
2018-04-17T22:12:18.471Z,5.30
2018-04-17T22:14:50.472Z,5.07
2018-04-17T22:17:22.332Z,5.30
2018-04-17T22:22:21.772Z,4.43
